Time;durP1;ratioP1;P1;durP2;ratioP2;P2;SDS_P1;SDS_P2;PMS_P1;PMS_P2;Temp;Humidity;BMP_temperature;BMP_pressure;BME280_temperature;BME280_humidity;BME280_pressure;Samples;Min_cycle;Max_cycle;Signal;HPM_P1;HPM_P2
2021/12/03 00:00:46;;;;;;;6.32;1.58;;;1.20;99.90;;;;;;5050811;28;20052;-75
2021/12/03 00:03:12;;;;;;;10.20;1.77;;;1.50;99.90;;;;;;5051095;28;20474;-75
2021/12/03 00:05:38;;;;;;;4.18;1.40;;;2.50;99.90;;;;;;5060835;28;20051;-75
2021/12/03 00:08:05;;;;;;;5.88;1.48;;;1.40;99.90;;;;;;5053893;28;20087;-75
2021/12/03 00:10:31;;;;;;;9.80;1.95;;;1.40;99.90;;;;;;5071440;28;20040;-74
2021/12/03 00:12:58;;;;;;;8.05;1.65;;;1.50;99.90;;;;;;5070895;28;20040;-76
2021/12/03 00:15:26;;;;;;;7.00;1.80;;;1.40;99.90;;;;;;5071195;28;20040;-74
2021/12/03 00:17:54;;;;;;;7.70;1.63;;;1.80;99.90;;;;;;5065384;28;20053;-74
2021/12/03 00:20:20;;;;;;;5.85;1.40;;;;;;;;;;5069465;28;20127;-73
2021/12/03 00:22:48;;;;;;;4.97;1.38;;;;;;;;;;5050405;28;20044;-75
2021/12/03 00:25:14;;;;;;;6.78;1.40;;;;;;;;;;5063190;28;20459;-75
2021/12/03 00:27:40;;;;;;;5.03;1.52;;;;;;;;;;5054202;28;20124;-73
2021/12/03 00:30:07;;;;;;;5.28;1.27;;;;;;;;;;5070082;28;20618;-74
2021/12/03 00:32:33;;;;;;;5.13;1.48;;;;;;;;;;5066764;28;20087;-73
2021/12/03 00:35:00;;;;;;;5.07;1.20;;;;;;;;;;5070666;28;20040;-73
2021/12/03 00:37:26;;;;;;;5.65;1.23;;;;;;;;;;5070423;28;20041;-74
2021/12/03 00:39:52;;;;;;;4.72;1.48;;;;;;;;;;5070548;28;20093;-72
2021/12/03 00:42:19;;;;;;;5.32;1.38;;;;;;;;;;5070703;28;20067;-74
2021/12/03 00:44:50;;;;;;;5.45;1.05;;;;;;;;;;5071211;28;20054;-73
2021/12/03 00:47:16;;;;;;;5.03;1.38;;;;;;;;;;5070283;28;20464;-74
2021/12/03 00:49:43;;;;;;;5.78;1.17;;;;;;;;;;5074506;28;20066;-74
2021/12/03 00:52:09;;;;;;;6.22;1.35;;;;;;;;;;5073773;28;20444;-74
2021/12/03 00:54:35;;;;;;;7.45;1.33;;;1.90;99.90;;;;;;5074990;28;20043;-74
2021/12/03 00:57:01;;;;;;;5.05;1.17;;;3.20;99.90;;;;;;5063439;28;20393;-74
2021/12/03 00:59:26;;;;;;;5.28;1.63;;;1.80;99.90;;;;;;5054708;28;20057;-74
2021/12/03 01:01:52;;;;;;;4.03;1.10;;;1.80;99.90;;;;;;5056931;28;20041;-74
2021/12/03 01:04:18;;;;;;;8.35;1.40;;;1.80;99.90;;;;;;5074353;28;20048;-75
2021/12/03 01:06:43;;;;;;;9.65;1.45;;;1.90;99.90;;;;;;5058090;28;20385;-75
2021/12/03 01:09:09;;;;;;;5.18;1.40;;;1.80;99.90;;;;;;5073931;28;20420;-75
2021/12/03 01:11:35;;;;;;;3.03;1.05;;;1.90;99.90;;;;;;5065957;28;20044;-75
2021/12/03 01:14:01;;;;;;;6.38;1.13;;;2.00;99.90;;;;;;5054031;28;20033;-74
2021/12/03 01:16:31;;;;;;;5.70;1.20;;;2.50;99.90;;;;;;5064433;28;20044;-74
2021/12/03 01:18:58;;;;;;;5.75;1.35;;;1.90;99.90;;;;;;5056877;28;20051;-74
2021/12/03 01:21:24;;;;;;;4.70;1.30;;;1.90;99.90;;;;;;5049240;28;20044;-75
2021/12/03 01:23:51;;;;;;;4.30;1.55;;;2.00;99.90;;;;;;5074038;28;20044;-74
2021/12/03 01:26:18;;;;;;;6.57;1.92;;;2.00;99.90;;;;;;5073564;28;20453;-74
2021/12/03 01:28:45;;;;;;;7.50;1.30;;;2.00;99.90;;;;;;5074247;28;20052;-74
2021/12/03 01:31:12;;;;;;;6.57;1.40;;;2.00;99.90;;;;;;5073802;28;20045;-74
2021/12/03 01:33:38;;;;;;;5.40;1.33;;;2.00;99.90;;;;;;5040385;28;20041;-74
2021/12/03 01:36:05;;;;;;;4.50;1.10;;;2.00;99.90;;;;;;5053602;28;20045;-74
2021/12/03 01:38:31;;;;;;;6.97;1.20;;;2.10;99.90;;;;;;5054024;28;20128;-74
2021/12/03 01:40:57;;;;;;;6.38;1.17;;;2.10;99.90;;;;;;5053230;28;20127;-74
2021/12/03 01:43:24;;;;;;;6.10;1.50;;;2.10;99.90;;;;;;5063321;28;20041;-74
2021/12/03 01:45:57;;;;;;;9.07;1.50;;;2.20;99.90;;;;;;5073612;28;20401;-74
2021/12/03 01:48:23;;;;;;;4.00;1.20;;;2.20;99.90;;;;;;5057139;28;20461;-74
2021/12/03 01:50:50;;;;;;;7.32;1.42;;;2.20;99.90;;;;;;5054069;28;20041;-74
2021/12/03 01:53:18;;;;;;;4.65;1.30;;;2.20;99.90;;;;;;5052841;28;20486;-74
2021/12/03 01:55:46;;;;;;;6.03;1.83;;;2.20;99.90;;;;;;5053585;28;20044;-74
2021/12/03 01:58:13;;;;;;;5.60;1.10;;;2.20;99.90;;;;;;5036416;28;20385;-74
2021/12/03 02:00:41;;;;;;;5.03;1.08;;;3.60;99.90;;;;;;5042409;28;20507;-74
2021/12/03 02:03:08;;;;;;;5.10;1.27;;;1.70;99.90;;;;;;5072969;28;20044;-74
2021/12/03 02:05:35;;;;;;;5.50;1.30;;;2.20;99.90;;;;;;5072967;28;20040;-74
2021/12/03 02:08:00;;;;;;;5.90;1.30;;;2.20;99.90;;;;;;5071938;28;20165;-74
2021/12/03 02:10:26;;;;;;;4.45;1.10;;;2.20;99.90;;;;;;5073560;28;20049;-74
2021/12/03 02:12:52;;;;;;;5.68;1.38;;;2.20;99.90;;;;;;5073757;28;20037;-74
2021/12/03 02:15:19;;;;;;;3.63;1.02;;;2.20;99.90;;;;;;5055593;28;20120;-74
2021/12/03 02:17:45;;;;;;;7.18;1.20;;;2.20;99.90;;;;;;5073360;28;20040;-74
2021/12/03 02:20:12;;;;;;;4.35;1.20;;;2.20;99.90;;;;;;5072177;28;20043;-74
2021/12/03 02:22:39;;;;;;;5.85;1.05;;;2.20;99.90;;;;;;5055942;28;20052;-74
2021/12/03 02:25:08;;;;;;;7.47;2.15;;;2.20;99.90;;;;;;5069525;28;20174;-75
2021/12/03 02:27:34;;;;;;;5.97;1.67;;;2.30;99.90;;;;;;5053088;28;20044;-75
2021/12/03 02:30:00;;;;;;;6.55;2.53;;;2.20;99.90;;;;;;5052012;28;20049;-75
2021/12/03 02:32:25;;;;;;;4.90;1.65;;;2.20;99.90;;;;;;5060875;28;20134;-75
2021/12/03 02:34:51;;;;;;;5.15;1.45;;;2.60;99.90;;;;;;5061305;28;20416;-75
2021/12/03 02:37:17;;;;;;;7.13;1.50;;;2.50;99.90;;;;;;5055088;28;20041;-75
2021/12/03 02:39:43;;;;;;;8.98;1.50;;;2.20;99.90;;;;;;5072216;28;20047;-74
2021/12/03 02:42:09;;;;;;;6.72;1.88;;;2.20;99.90;;;;;;5072206;28;20101;-75
2021/12/03 02:44:35;;;;;;;3.28;1.20;;;2.20;99.90;;;;;;5065955;28;20048;-75
2021/12/03 02:47:01;;;;;;;5.97;1.52;;;2.20;99.90;;;;;;5072103;28;20042;-75
2021/12/03 02:49:27;;;;;;;5.30;1.17;;;3.70;99.90;;;;;;5055487;28;20048;-75
2021/12/03 02:51:52;;;;;;;6.72;1.80;;;2.20;99.90;;;;;;5054714;28;20067;-75
2021/12/03 02:54:18;;;;;;;6.07;1.30;;;2.20;99.90;;;;;;5052389;28;20053;-75
2021/12/03 02:56:43;;;;;;;5.20;1.40;;;2.20;99.90;;;;;;5052249;28;20049;-75
2021/12/03 02:59:09;;;;;;;6.90;1.35;;;2.20;99.90;;;;;;5061967;28;20037;-75
2021/12/03 03:01:35;;;;;;;5.20;1.50;;;2.50;99.90;;;;;;5072524;28;20080;-75
2021/12/03 03:04:01;;;;;;;4.90;1.30;;;2.20;99.90;;;;;;5055891;28;20099;-75
2021/12/03 03:06:27;;;;;;;4.07;1.20;;;2.30;99.90;;;;;;5052315;28;20048;-75
2021/12/03 03:08:53;;;;;;;6.82;1.35;;;2.30;99.90;;;;;;5051790;28;20401;-75
2021/12/03 03:11:21;;;;;;;4.70;1.10;;;2.30;99.90;;;;;;5052874;28;20382;-75
2021/12/03 03:13:48;;;;;;;4.95;1.23;;;2.30;99.90;;;;;;5072065;28;20123;-75
2021/12/03 03:16:15;;;;;;;8.73;1.48;;;3.70;99.90;;;;;;5071859;28;20040;-75
2021/12/03 03:18:42;;;;;;;3.75;1.10;;;3.90;99.90;;;;;;5072092;28;20401;-75
2021/12/03 03:21:07;;;;;;;6.28;1.35;;;3.90;99.90;;;;;;5071241;28;20048;-75
2021/12/03 03:23:34;;;;;;;7.05;1.52;;;2.40;99.90;;;;;;5071872;28;20048;-75
2021/12/03 03:26:01;;;;;;;7.22;1.25;;;2.40;99.90;;;;;;5070802;28;20063;-75
2021/12/03 03:28:28;;;;;;;7.45;1.40;;;2.40;99.90;;;;;;5055360;28;20106;-74
2021/12/03 03:30:56;;;;;;;6.00;1.10;;;2.40;99.90;;;;;;5071719;28;20147;-75
2021/12/03 03:33:22;;;;;;;5.38;1.02;;;2.40;99.90;;;;;;5071468;28;20047;-76
2021/12/03 03:35:48;;;;;;;7.05;1.45;;;2.50;99.90;;;;;;5055070;28;20136;-76
2021/12/03 03:38:15;;;;;;;5.43;1.67;;;2.50;99.90;;;;;;5071751;28;20040;-76
2021/12/03 03:40:43;;;;;;;7.53;1.60;;;3.00;99.90;;;;;;5071616;28;20044;-76
2021/12/03 03:43:09;;;;;;;7.28;1.50;;;2.70;99.90;;;;;;5054498;28;20088;-75
2021/12/03 03:45:37;;;;;;;8.25;1.50;;;2.50;99.90;;;;;;5054439;28;20076;-75
2021/12/03 03:48:04;;;;;;;4.93;1.20;;;2.60;99.90;;;;;;5070713;28;20040;-76
2021/12/03 03:50:30;;;;;;;6.32;1.55;;;2.60;99.90;;;;;;5054777;28;20041;-76
2021/12/03 03:52:56;;;;;;;5.32;1.73;;;2.60;99.90;;;;;;5070935;28;20698;-76
2021/12/03 03:55:24;;;;;;;9.32;1.70;;;;;;;;;;5071173;28;20381;-76
2021/12/03 03:57:51;;;;;;;6.85;1.40;;;2.70;99.90;;;;;;5071182;28;20162;-76
2021/12/03 04:00:21;;;;;;;10.50;2.58;;;2.70;99.90;;;;;;5070890;28;20373;-76
2021/12/03 04:02:47;;;;;;;7.35;1.80;;;2.70;99.90;;;;;;5070835;28;20040;-76
2021/12/03 04:05:13;;;;;;;6.22;1.60;;;2.70;99.90;;;;;;5054373;28;20055;-76
2021/12/03 04:07:40;;;;;;;6.88;2.00;;;2.80;99.90;;;;;;5071051;28;20044;-76
2021/12/03 04:10:07;;;;;;;5.68;1.92;;;2.80;99.90;;;;;;5070753;28;20044;-75
2021/12/03 04:12:34;;;;;;;5.65;2.30;;;2.70;99.90;;;;;;5071053;28;20094;-76
2021/12/03 04:15:01;;;;;;;14.65;2.75;;;4.50;99.90;;;;;;5053904;28;20119;-76
2021/12/03 04:17:27;;;;;;;7.38;2.45;;;2.80;99.90;;;;;;5071117;28;20052;-76
2021/12/03 04:19:53;;;;;;;9.93;1.92;;;2.80;99.90;;;;;;5070684;28;20389;-76
2021/12/03 04:22:23;;;;;;;6.03;2.10;;;2.80;99.90;;;;;;5072184;28;20044;-76
2021/12/03 04:24:50;;;;;;;8.75;3.00;;;2.80;99.90;;;;;;5070856;28;20045;-76
2021/12/03 04:27:17;;;;;;;5.43;2.50;;;2.80;99.90;;;;;;5070586;28;20493;-76
2021/12/03 04:29:42;;;;;;;7.22;1.95;;;2.80;99.90;;;;;;5071061;28;20051;-76
2021/12/03 04:32:08;;;;;;;7.78;2.22;;;2.80;99.90;;;;;;5070559;28;20040;-76
2021/12/03 04:34:35;;;;;;;9.52;2.80;;;2.80;99.90;;;;;;5070860;28;20047;-76
2021/12/03 04:37:01;;;;;;;7.47;2.00;;;2.80;99.90;;;;;;5070277;28;20478;-76
2021/12/03 04:39:27;;;;;;;6.20;2.42;;;2.90;99.90;;;;;;5054208;28;20051;-76
2021/12/03 04:41:52;;;;;;;8.10;2.95;;;2.90;99.90;;;;;;5070267;28;20048;-75
2021/12/03 04:44:18;;;;;;;9.85;2.80;;;2.90;99.90;;;;;;5070992;28;20132;-76
2021/12/03 04:46:44;;;;;;;7.15;2.60;;;2.90;99.90;;;;;;5070664;28;20404;-76
2021/12/03 04:49:09;;;;;;;7.28;2.63;;;4.30;99.90;;;;;;5070002;28;20040;-76
2021/12/03 04:51:35;;;;;;;7.15;2.45;;;2.90;99.90;;;;;;5070919;28;20040;-76
2021/12/03 04:54:01;;;;;;;8.73;2.80;;;2.90;99.90;;;;;;5070572;28;20067;-76
2021/12/03 04:56:27;;;;;;;11.80;3.40;;;;;;;;;;5070875;28;20047;-76
2021/12/03 04:58:53;;;;;;;10.68;3.00;;;3.00;99.90;;;;;;5070719;28;20048;-76
2021/12/03 05:01:19;;;;;;;7.90;3.22;;;3.00;99.90;;;;;;5068652;28;20040;-76
2021/12/03 05:03:44;;;;;;;10.68;3.55;;;3.90;99.90;;;;;;5070704;28;20051;-76
2021/12/03 05:06:16;;;;;;;6.63;2.88;;;3.00;99.90;;;;;;5070471;28;20052;-75
2021/12/03 05:08:42;;;;;;;8.75;2.97;;;3.00;99.90;;;;;;5070707;28;20075;-76
2021/12/03 05:11:08;;;;;;;6.32;2.53;;;3.00;99.90;;;;;;5070315;28;20045;-76
2021/12/03 05:13:36;;;;;;;9.48;3.33;;;3.80;99.90;;;;;;5070817;28;20037;-76
2021/12/03 05:16:04;;;;;;;5.55;2.20;;;3.10;99.90;;;;;;5069708;28;20389;-76
2021/12/03 05:18:30;;;;;;;7.45;2.55;;;3.00;99.90;;;;;;5070733;28;20047;-76
2021/12/03 05:21:00;;;;;;;8.25;2.45;;;3.10;99.90;;;;;;5070338;28;20059;-76
2021/12/03 05:23:28;;;;;;;8.23;2.60;;;4.20;99.90;;;;;;5070607;28;20505;-75
2021/12/03 05:25:54;;;;;;;7.43;2.30;;;3.90;99.90;;;;;;5071599;28;20071;-76
2021/12/03 05:28:21;;;;;;;6.82;2.58;;;3.10;99.90;;;;;;5070324;28;20053;-76
2021/12/03 05:30:47;;;;;;;7.28;2.50;;;3.10;99.90;;;;;;5069857;28;20119;-76
2021/12/03 05:33:12;;;;;;;6.32;2.30;;;3.20;99.90;;;;;;5072900;28;20072;-76
2021/12/03 05:35:38;;;;;;;8.88;2.40;;;3.20;99.90;;;;;;5074328;28;20040;-76
2021/12/03 05:38:04;;;;;;;6.30;2.35;;;;;;;;;;5072843;28;20044;-75
2021/12/03 05:40:30;;;;;;;12.95;2.63;;;;;;;;;;5074390;28;20044;-75
2021/12/03 05:42:56;;;;;;;6.53;2.70;;;;;;;;;;5062711;28;20056;-75
2021/12/03 05:45:25;;;;;;;6.32;2.92;;;;;;;;;;5072058;28;20040;-76
2021/12/03 05:47:51;;;;;;;7.57;2.97;;;;;;;;;;5056427;28;20045;-76
2021/12/03 05:50:18;;;;;;;15.07;4.32;;;;;;;;;;5073632;28;20072;-75
2021/12/03 05:52:45;;;;;;;9.63;4.35;;;;;;;;;;5073312;28;20519;-75
2021/12/03 05:55:11;;;;;;;10.05;4.03;;;;;;;;;;5057171;28;20389;-76
2021/12/03 05:57:38;;;;;;;8.02;3.70;;;;;;;;;;5073971;28;20084;-77
2021/12/03 06:00:10;;;;;;;8.82;3.47;;;;;;;;;;5073204;28;20044;-77
2021/12/03 06:02:36;;;;;;;7.93;2.40;;;;;;;;;;5073728;28;20037;-79
2021/12/03 06:05:02;;;;;;;6.65;2.65;;;;;;;;;;5073288;28;20064;-79
2021/12/03 06:07:28;;;;;;;6.55;3.00;;;;;;;;;;5073230;28;20036;-80
2021/12/03 06:09:54;;;;;;;9.68;3.25;;;3.30;99.90;;;;;;5072498;28;20127;-77
2021/12/03 06:12:19;;;;;;;8.20;3.03;;;3.40;99.90;;;;;;5074137;28;20540;-72
2021/12/03 06:14:45;;;;;;;8.68;2.85;;;3.40;99.90;;;;;;5073551;28;20133;-79
2021/12/03 06:17:13;;;;;;;13.13;3.50;;;3.40;99.90;;;;;;5073138;28;20507;-80
2021/12/03 06:19:40;;;;;;;9.98;4.00;;;3.40;99.90;;;;;;5073326;28;20047;-79
2021/12/03 06:22:06;;;;;;;11.05;4.70;;;3.40;99.90;;;;;;5056281;28;20052;-79
2021/12/03 06:24:32;;;;;;;11.88;5.03;;;3.30;99.90;;;;;;5073483;28;20044;-80
2021/12/03 06:26:57;;;;;;;9.80;4.72;;;3.20;99.90;;;;;;5072526;28;20052;-79
2021/12/03 06:29:23;;;;;;;9.63;4.90;;;;;;;;;;5056545;28;20044;-78
2021/12/03 06:31:49;;;;;;;11.18;5.70;;;;;;;;;;5072805;28;20052;-73
2021/12/03 06:34:15;;;;;;;10.73;5.85;;;3.50;99.90;;;;;;5072675;28;20036;-69
2021/12/03 06:36:42;;;;;;;12.23;5.40;;;3.50;99.90;;;;;;5072762;28;20051;-77
2021/12/03 06:39:08;;;;;;;12.00;5.32;;;3.50;99.90;;;;;;5071394;28;20036;-74
2021/12/03 06:41:33;;;;;;;12.23;5.72;;;3.40;99.90;;;;;;5071409;28;20048;-78
2021/12/03 06:43:59;;;;;;;10.48;5.53;;;4.10;99.90;;;;;;5071729;28;20041;-79
2021/12/03 06:46:25;;;;;;;10.23;5.78;;;3.40;99.90;;;;;;5060735;28;20053;-71
2021/12/03 06:48:51;;;;;;;10.90;6.22;;;3.40;99.90;;;;;;5053684;28;20536;-82
2021/12/03 06:51:17;;;;;;;13.88;6.22;;;3.50;99.90;;;;;;5052765;28;20033;-78
2021/12/03 06:53:47;;;;;;;14.82;6.28;;;3.50;99.90;;;;;;5052642;28;20124;-78
2021/12/03 06:56:23;;;;;;;10.27;6.10;;;3.50;99.90;;;;;;5052125;28;20083;-78
2021/12/03 06:58:49;;;;;;;15.75;7.03;;;3.50;99.90;;;;;;5061733;28;20070;-73
2021/12/03 07:01:15;;;;;;;15.40;7.18;;;3.50;99.90;;;;;;5042447;28;20044;-73
2021/12/03 07:03:41;;;;;;;14.00;6.03;;;3.50;99.90;;;;;;5051998;28;20127;-73
2021/12/03 07:06:07;;;;;;;12.75;5.93;;;3.60;99.90;;;;;;5035366;28;20039;-70
2021/12/03 07:08:33;;;;;;;14.48;7.15;;;3.60;99.90;;;;;;5053500;28;20402;-75
2021/12/03 07:10:58;;;;;;;14.00;5.97;;;3.60;99.90;;;;;;5051550;28;20037;-77
2021/12/03 07:13:30;;;;;;;10.25;5.95;;;3.70;99.90;;;;;;5035675;28;20068;-76
2021/12/03 07:15:55;;;;;;;10.20;5.00;;;3.70;99.90;;;;;;5063811;28;20110;-76
2021/12/03 07:18:21;;;;;;;13.38;6.32;;;3.80;99.90;;;;;;5071512;28;20075;-77
2021/12/03 07:20:47;;;;;;;9.98;4.68;;;3.80;99.90;;;;;;5060767;28;20045;-73
2021/12/03 07:23:13;;;;;;;11.35;4.70;;;3.90;99.90;;;;;;5052366;28;20098;-70
2021/12/03 07:25:38;;;;;;;11.57;4.80;;;4.70;99.90;;;;;;5051288;28;20090;-74
2021/12/03 07:28:04;;;;;;;10.43;4.28;;;4.20;99.90;;;;;;5062916;28;20103;-76
2021/12/03 07:30:31;;;;;;;14.05;4.35;;;4.00;99.90;;;;;;5070938;28;20032;-72
2021/12/03 07:32:58;;;;;;;9.85;4.93;;;4.00;99.90;;;;;;5071090;28;20064;-71
2021/12/03 07:35:23;;;;;;;9.82;4.80;;;4.00;99.90;;;;;;5071712;28;20055;-74
2021/12/03 07:37:49;;;;;;;10.43;4.90;;;4.10;99.90;;;;;;5070770;28;20040;-68
2021/12/03 07:40:15;;;;;;;12.20;5.35;;;4.10;99.90;;;;;;5062423;28;20170;-70
2021/12/03 07:42:41;;;;;;;10.45;5.07;;;4.10;99.90;;;;;;5066226;28;20177;-77
2021/12/03 07:45:09;;;;;;;13.73;4.68;;;4.10;99.90;;;;;;5064963;28;20505;-68
2021/12/03 07:47:36;;;;;;;12.52;5.45;;;4.10;99.90;;;;;;5051510;28;20501;-69
2021/12/03 07:50:02;;;;;;;11.13;5.35;;;4.10;99.90;;;;;;5051152;28;20159;-69
2021/12/03 07:52:28;;;;;;;11.18;4.93;;;4.20;99.90;;;;;;5051180;28;20119;-69
2021/12/03 07:54:54;;;;;;;12.20;5.05;;;4.20;99.90;;;;;;5050299;28;20124;-68
2021/12/03 07:57:20;;;;;;;10.55;4.55;;;4.20;99.90;;;;;;5050873;28;20044;-67
2021/12/03 07:59:46;;;;;;;8.25;3.65;;;4.20;99.90;;;;;;5063398;28;20044;-71
2021/12/03 08:02:12;;;;;;;9.32;4.85;;;;;;;;;;5065950;28;20040;-68
2021/12/03 08:04:38;;;;;;;12.40;3.80;;;;;;;;;;5068872;28;20519;-68
2021/12/03 08:07:04;;;;;;;8.18;3.88;;;;;;;;;;5067989;28;20405;-69
2021/12/03 08:09:30;;;;;;;9.52;3.88;;;;;;;;;;5068864;28;20618;-69
2021/12/03 08:11:56;;;;;;;9.35;4.35;;;;;;;;;;5051257;28;20041;-69
2021/12/03 08:14:23;;;;;;;13.20;3.60;;;;;;;;;;5065716;28;20075;-69
2021/12/03 08:16:49;;;;;;;8.13;3.25;;;;;;;;;;5067876;28;20121;-69
2021/12/03 08:19:15;;;;;;;8.40;3.40;;;4.30;99.90;;;;;;5066169;28;20390;-69
2021/12/03 08:21:40;;;;;;;10.20;2.63;;;4.40;99.90;;;;;;5053477;28;20056;-69
2021/12/03 08:24:06;;;;;;;8.10;3.00;;;4.30;99.90;;;;;;5048029;28;20490;-66
2021/12/03 08:26:33;;;;;;;8.10;3.03;;;4.50;99.90;;;;;;5048580;28;20056;-70
2021/12/03 08:28:59;;;;;;;8.50;2.72;;;4.40;99.90;;;;;;5053074;28;20076;-67
2021/12/03 08:31:25;;;;;;;9.70;3.00;;;4.40;99.90;;;;;;5064684;28;20126;-69
2021/12/03 08:33:52;;;;;;;7.90;2.80;;;4.40;99.90;;;;;;5051501;28;20133;-69
2021/12/03 08:36:18;;;;;;;8.65;2.90;;;4.40;99.90;;;;;;5050537;28;20041;-69
2021/12/03 08:38:45;;;;;;;11.35;3.22;;;4.40;99.90;;;;;;5068405;28;20102;-68
2021/12/03 08:41:15;;;;;;;11.02;3.47;;;4.50;99.90;;;;;;5050597;28;20051;-68
2021/12/03 08:43:41;;;;;;;11.20;3.47;;;4.50;99.90;;;;;;5051944;28;20123;-71
2021/12/03 08:46:13;;;;;;;10.00;3.28;;;5.50;99.90;;;;;;5070623;28;20166;-70
2021/12/03 08:48:42;;;;;;;6.93;3.42;;;4.50;99.90;;;;;;5050565;28;20044;-69
2021/12/03 08:51:35;;;;;;;13.32;3.97;;;4.50;99.90;;;;;;5067714;28;20059;-72
2021/12/03 08:56:39;;;;;;;11.13;4.32;;;6.50;99.90;;;;;;5088046;28;20097;-72
2021/12/03 08:59:06;;;;;;;7.60;3.60;;;6.90;99.90;;;;;;5088038;28;20411;-71
2021/12/03 09:02:03;;;;;;;7.78;3.88;;;6.10;99.90;;;;;;5088557;28;20044;-69
2021/12/03 09:04:29;;;;;;;14.75;3.88;;;4.60;99.90;;;;;;5084679;28;20485;-70
2021/12/03 09:06:57;;;;;;;10.68;3.38;;;5.20;99.90;;;;;;5090838;28;20055;-67
2021/12/03 09:09:23;;;;;;;7.35;2.38;;;4.60;99.90;;;;;;5088209;28;20749;-65
2021/12/03 09:11:50;;;;;;;10.15;2.90;;;4.50;99.90;;;;;;5070670;28;20470;-65
2021/12/03 09:17:58;;;;;;;11.13;2.95;;;4.60;99.90;;;;;;5091274;28;20050;-71
2021/12/03 09:19:57;;;;;;;10.30;3.60;;;4.70;99.90;;;;;;5083238;28;20048;-69
2021/12/03 09:24:52;;;;;;;12.02;3.80;;;5.10;99.90;;;;;;5070585;28;20106;-70
2021/12/03 09:27:20;;;;;;;8.77;4.57;;;4.70;99.90;;;;;;5071286;28;20136;-68
2021/12/03 09:29:46;;;;;;;8.43;4.45;;;4.70;99.90;;;;;;5071249;28;20049;-70
2021/12/03 09:32:20;;;;;;;14.32;5.07;;;4.70;99.90;;;;;;5053685;28;20138;-70
2021/12/03 09:34:46;;;;;;;13.75;5.20;;;4.80;99.90;;;;;;5051699;28;20091;-69
2021/12/03 09:37:11;;;;;;;11.02;4.50;;;4.80;99.90;;;;;;5050723;28;20102;-69
2021/12/03 09:39:41;;;;;;;8.50;4.28;;;4.80;99.90;;;;;;5051256;28;20107;-69
2021/12/03 09:42:07;;;;;;;13.25;5.07;;;5.00;99.90;;;;;;5057326;28;20497;-68
2021/12/03 09:44:33;;;;;;;12.93;4.85;;;4.90;99.90;;;;;;5070168;28;20052;-69
2021/12/03 09:47:00;;;;;;;12.88;4.70;;;4.90;99.90;;;;;;5073096;28;20416;-69
2021/12/03 09:49:33;;;;;;;9.50;4.35;;;4.90;99.90;;;;;;5085105;28;20124;-69
2021/12/03 09:54:29;;;;;;;11.02;4.10;;;4.90;99.90;;;;;;5072204;28;20048;-68
2021/12/03 09:58:04;;;;;;;13.57;4.20;;;5.60;99.90;;;;;;5050833;28;20037;-68
2021/12/03 10:13:20;;;;;;;14.63;5.10;;;5.60;99.90;;;;;;5054303;28;20509;-74
2021/12/03 10:16:00;;;;;;;13.25;4.40;;;5.50;99.90;;;;;;5071075;28;20111;-74
2021/12/03 10:18:32;;;;;;;11.60;4.65;;;;;;;;;;5072366;28;20036;-74
2021/12/03 10:21:14;;;;;;;10.55;3.90;;;5.30;99.90;;;;;;5055843;28;20055;-73
2021/12/03 10:37:15;;;;;;;15.02;4.35;;;5.50;99.90;;;;;;5072989;28;20083;-75
2021/12/03 10:40:05;;;;;;;10.90;3.53;;;;;;;;;;5073496;28;20398;-75
2021/12/03 10:42:49;;;;;;;15.88;5.65;;;;;;;;;;5063072;28;20041;-76
2021/12/03 10:50:41;;;;;;;16.35;5.28;;;;;;;;;;5057661;28;20041;-79
2021/12/03 10:53:36;;;;;;;11.02;4.30;;;4.90;99.90;;;;;;5072922;28;20498;-77
2021/12/03 11:36:30;;;;;;;11.48;4.63;;;4.30;99.90;;;;;;5069935;28;20062;-74
2021/12/03 12:33:31;;;;;;;14.23;5.55;;;4.70;99.90;;;;;;5067847;28;20049;-76
2021/12/03 14:03:58;;;;;;;12.38;5.82;;;4.50;99.90;;;;;;5071838;28;20068;-74
2021/12/03 14:09:27;;;;;;;11.57;5.93;;;4.60;99.90;;;;;;5069967;28;20390;-76
2021/12/03 14:55:52;;;;;;;15.85;9.32;;;4.60;99.90;;;;;;5052038;28;20136;-78
2021/12/03 14:58:23;;;;;;;14.23;8.15;;;4.50;99.90;;;;;;5069751;28;20109;-79
2021/12/03 15:00:55;;;;;;;15.65;9.25;;;4.60;99.90;;;;;;5071402;28;20101;-78
2021/12/03 15:14:25;;;;;;;16.52;9.80;;;4.90;99.90;;;;;;5068634;28;20828;-75
2021/12/03 15:19:41;;;;;;;13.55;10.13;;;4.90;99.90;;;;;;5051264;28;20048;-81
2021/12/03 15:32:44;;;;;;;19.55;12.40;;;;;;;;;;5068092;28;20052;-84
2021/12/03 15:35:33;;;;;;;20.00;12.23;;;4.80;99.90;;;;;;5048162;28;20037;-82
2021/12/03 16:04:57;;;;;;;17.63;13.18;;;4.80;99.90;;;;;;5057272;28;20087;-79
2021/12/03 16:12:53;;;;;;;23.05;17.52;;;4.90;99.90;;;;;;5091658;28;20459;-80
2021/12/03 16:18:13;;;;;;;18.23;12.00;;;4.80;99.90;;;;;;5072370;28;20385;-80
2021/12/03 16:20:58;;;;;;;21.65;14.23;;;4.90;99.90;;;;;;5065732;28;20504;-81
2021/12/03 16:45:59;;;;;;;17.73;12.50;;;4.90;99.90;;;;;;5070610;28;20519;-85
2021/12/03 16:53:30;;;;;;;20.25;12.57;;;4.90;99.90;;;;;;5082581;28;20524;-80
2021/12/03 16:56:10;;;;;;;16.38;12.00;;;5.00;99.90;;;;;;5070340;28;20049;-85
2021/12/03 16:58:40;;;;;;;17.38;12.95;;;5.00;99.90;;;;;;5070904;28;20091;-81
2021/12/03 17:04:03;;;;;;;19.17;13.65;;;5.10;99.90;;;;;;5070670;28;20051;-83
2021/12/03 17:12:14;;;;;;;17.60;13.05;;;;;;;;;;5071154;28;20037;-84
2021/12/03 17:17:50;;;;;;;16.33;11.93;;;;;;;;;;5070253;28;20052;-82
2021/12/03 17:28:55;;;;;;;18.25;11.98;;;;;;;;;;5070948;28;20121;-75
2021/12/03 17:50:12;;;;;;;17.27;11.73;;;;;;;;;;5072405;28;20048;-76
2021/12/03 17:55:26;;;;;;;17.25;12.43;;;;;;;;;;5072079;28;20040;-83
2021/12/03 18:00:56;;;;;;;18.17;12.95;;;;;;;;;;5074135;28;20044;-78
2021/12/03 18:03:25;;;;;;;15.27;11.30;;;;;;;;;;5073223;28;20044;-80
2021/12/03 18:43:21;;;;;;;19.30;12.93;;;;;;;;;;5073407;28;20080;-79
2021/12/03 18:57:09;;;;;;;24.10;16.05;;;;;;;;;;5052228;28;20077;-82
2021/12/03 19:02:33;;;;;;;26.00;17.08;;;;;;;;;;5053856;28;20052;-78
2021/12/03 19:05:45;;;;;;;27.17;17.65;;;;;;;;;;5075526;28;20440;-80
2021/12/03 19:10:27;;;;;;;26.80;18.30;;;6.10;99.90;;;;;;5072223;28;20056;-78
2021/12/03 19:13:03;;;;;;;28.58;18.50;;;6.40;99.90;;;;;;5071945;28;20290;-77
2021/12/03 19:15:29;;;;;;;28.80;18.52;;;;;;;;;;5070670;28;20045;-78
2021/12/03 19:17:59;;;;;;;27.30;18.13;;;4.60;99.90;;;;;;5071387;28;20051;-82
2021/12/03 19:20:28;;;;;;;33.78;20.52;;;5.90;99.90;;;;;;5052112;28;20045;-79
2021/12/03 19:22:55;;;;;;;30.17;20.80;;;5.70;99.90;;;;;;5061404;28;20044;-81
2021/12/03 19:25:20;;;;;;;28.98;20.15;;;5.50;99.90;;;;;;5070189;28;20451;-80
2021/12/03 19:27:46;;;;;;;31.67;20.13;;;5.80;99.90;;;;;;5064899;28;20090;-80
2021/12/03 19:30:12;;;;;;;29.33;21.30;;;5.40;99.90;;;;;;5090509;28;20446;-78
2021/12/03 19:32:40;;;;;;;33.22;22.88;;;;;;;;;;5091466;28;20067;-79
2021/12/03 19:35:06;;;;;;;38.53;24.30;;;5.20;99.90;;;;;;5091561;28;20095;-79
2021/12/03 19:37:34;;;;;;;35.92;23.77;;;;;;;;;;5088999;28;20064;-79
2021/12/03 19:40:03;;;;;;;37.58;24.52;;;;;;;;;;5071190;28;20044;-79
2021/12/03 19:42:37;;;;;;;36.42;24.15;;;;;;;;;;5086834;28;20119;-79
2021/12/03 19:45:06;;;;;;;39.47;26.17;;;;;;;;;;5091837;28;20460;-78
2021/12/03 19:47:57;;;;;;;37.55;25.05;;;;;;;;;;5092477;28;20052;-81
2021/12/03 19:51:01;;;;;;;39.28;25.90;;;;;;;;;;5054728;28;20044;-78
2021/12/03 19:53:32;;;;;;;42.03;25.70;;;;;;;;;;5071421;28;20037;-76
2021/12/03 19:55:58;;;;;;;47.08;26.98;;;;;;;;;;5054563;28;20090;-77
2021/12/03 19:58:24;;;;;;;42.17;26.35;;;;;;;;;;5050753;28;20110;-76
2021/12/03 20:00:50;;;;;;;42.15;26.88;;;;;;;;;;5051195;28;20037;-77
2021/12/03 20:03:17;;;;;;;44.90;26.98;;;;;;;;;;5034123;28;20091;-77
2021/12/03 20:05:43;;;;;;;43.15;28.15;;;;;;;;;;5054750;28;20473;-75
2021/12/03 20:08:09;;;;;;;45.95;26.98;;;5.50;99.90;;;;;;5070499;28;20048;-77
2021/12/03 20:10:42;;;;;;;50.08;29.38;;;;;;;;;;5071233;28;20055;-77
2021/12/03 20:13:10;;;;;;;46.75;28.17;;;;;;;;;;5070828;28;20051;-76
2021/12/03 20:18:31;;;;;;;43.80;28.30;;;;;;;;;;5072296;28;20131;-78
2021/12/03 20:20:58;;;;;;;43.92;26.00;;;;;;;;;;5090461;28;20055;-77
2021/12/03 20:23:44;;;;;;;48.20;27.70;;;;;;;;;;5069306;28;20090;-80
2021/12/03 20:29:01;;;;;;;47.38;28.67;;;;;;;;;;5069463;28;20555;-74
2021/12/03 20:31:33;;;;;;;46.80;28.73;;;;;;;;;;5069835;28;20039;-74
2021/12/03 20:34:09;;;;;;;46.20;27.85;;;;;;;;;;5070080;28;20044;-76
2021/12/03 20:36:58;;;;;;;49.28;29.98;;;;;;;;;;5054562;28;20044;-76
2021/12/03 20:39:29;;;;;;;48.30;28.80;;;;;;;;;;5069249;28;20100;-78
2021/12/03 20:42:09;;;;;;;49.08;29.75;;;;;;;;;;5070736;28;20045;-78
2021/12/03 20:47:34;;;;;;;48.45;28.33;;;;;;;;;;5069065;28;20052;-79
2021/12/03 20:50:11;;;;;;;47.90;28.35;;;;;;;;;;5068875;28;20075;-78
2021/12/03 20:53:14;;;;;;;48.78;29.52;;;;;;;;;;5070107;28;20501;-78
2021/12/03 21:09:31;;;;;;;47.23;28.50;;;;;;;;;;5074960;28;20051;-75
2021/12/03 21:12:00;;;;;;;47.47;27.73;;;;;;;;;;5074548;28;20047;-76
2021/12/03 21:14:32;;;;;;;52.50;28.85;;;;;;;;;;5074356;28;20369;-75
2021/12/03 21:17:16;;;;;;;45.17;28.42;;;;;;;;;;5057602;28;20055;-75
2021/12/03 21:19:58;;;;;;;44.60;26.13;;;;;;;;;;5074398;28;20049;-76
2021/12/03 21:22:29;;;;;;;44.67;27.42;;;;;;;;;;5072777;28;20083;-75